Time;durP1;ratioP1;P1;durP2;ratioP2;P2;SDS_P1;SDS_P2;PMS_P1;PMS_P2;Temp;Humidity;BMP_temperature;BMP_pressure;BME280_temperature;BME280_humidity;BME280_pressure;Samples;Min_cycle;Max_cycle;Signal;HPM_P1;HPM_P2
2021/05/27 00:01:32;;;;;;;0.60;0.60;;;;;;;10.73;87.91;98718.75;4908898;28;102759;-77
2021/05/27 00:04:04;;;;;;;0.83;0.77;;;;;;;10.67;88.37;98721.00;4891309;28;103503;-78
2021/05/27 00:06:35;;;;;;;2.03;0.80;;;;;;;10.64;88.34;98727.34;4907633;28;102511;-78
2021/05/27 00:09:05;;;;;;;2.03;0.87;;;;;;;10.64;88.94;98724.69;4907822;28;102382;-78
2021/05/27 00:11:36;;;;;;;0.63;0.63;;;;;;;10.58;89.39;98725.16;4908048;28;104779;-78
2021/05/27 00:14:07;;;;;;;0.80;0.80;;;;;;;10.53;89.63;98724.63;4908006;28;102442;-78
2021/05/27 00:16:38;;;;;;;1.07;0.97;;;;;;;10.61;88.97;98732.84;4908474;28;102467;-78
2021/05/27 00:19:12;;;;;;;0.80;0.80;;;;;;;10.62;88.89;98734.53;4908771;28;102939;-78
2021/05/27 00:21:43;;;;;;;1.10;0.77;;;;;;;10.59;88.85;98737.41;4908371;28;104531;-78
2021/05/27 00:24:13;;;;;;;1.20;0.90;;;;;;;10.62;88.97;98731.91;4908114;28;103727;-77
2021/05/27 00:26:44;;;;;;;2.97;1.00;;;;;;;10.61;89.03;98730.19;4908128;28;103179;-78
2021/05/27 00:29:15;;;;;;;1.23;1.00;;;;;;;10.64;88.63;98735.28;4908964;28;102553;-77
2021/05/27 00:31:46;;;;;;;1.03;1.00;;;;;;;10.52;88.99;98738.81;4906949;28;103540;-78
2021/05/27 00:34:23;;;;;;;1.00;0.83;;;;;;;10.51;89.33;98734.47;4907213;28;103352;-78
2021/05/27 00:36:58;;;;;;;1.73;0.80;;;;;;;10.57;89.03;98726.13;4907783;28;103026;-78
2021/05/27 00:39:30;;;;;;;1.97;1.00;;;;;;;10.61;88.50;98729.38;4907788;28;103158;-78
2021/05/27 00:42:00;;;;;;;0.60;0.60;;;;;;;10.64;88.07;98727.34;4907748;28;104815;-78
2021/05/27 00:44:32;;;;;;;1.17;0.90;;;;;;;10.61;88.49;98732.03;4907504;28;103628;-78
2021/05/27 00:47:06;;;;;;;1.77;0.90;;;;;;;10.58;88.30;98732.25;4890614;28;102880;-78
2021/05/27 00:49:38;;;;;;;1.20;0.80;;;;;;;10.56;88.48;98732.34;4908170;28;102570;-79
2021/05/27 00:52:13;;;;;;;2.47;1.20;;;;;;;10.56;88.44;98734.97;4904623;28;103754;-78
2021/05/27 00:54:43;;;;;;;2.77;1.10;;;;;;;10.60;87.94;98740.91;4890237;28;103377;-78
2021/05/27 00:57:24;;;;;;;1.00;0.83;;;;;;;10.53;88.24;98743.13;4906171;28;102617;-78
2021/05/27 00:59:55;;;;;;;2.37;1.43;;;;;;;10.55;88.15;98749.16;4907669;28;102518;-79
2021/05/27 01:02:25;;;;;;;1.53;1.00;;;;;;;10.50;88.25;98745.97;4906732;28;103962;-78
2021/05/27 01:04:57;;;;;;;1.47;0.80;;;;;;;10.57;87.65;98752.53;4890789;28;103313;-78
2021/05/27 01:07:27;;;;;;;0.90;0.80;;;;;;;10.58;87.76;98735.75;4907342;28;102503;-78
2021/05/27 01:09:57;;;;;;;0.90;0.80;;;;;;;10.58;87.74;98743.66;4907858;28;102530;-78
2021/05/27 01:12:28;;;;;;;1.30;1.00;;;;;;;10.39;88.78;98745.91;4907522;28;103608;-77
2021/05/27 01:17:49;;;;;;;1.93;1.30;;;;;;;10.27;90.16;98754.72;4891099;28;103155;-78
2021/05/27 01:20:22;;;;;;;0.80;0.80;;;;;;;10.42;89.68;98750.97;4908308;28;102870;-78
2021/05/27 01:22:54;;;;;;;3.07;1.20;;;;;;;10.36;89.42;98760.16;4906496;28;103489;-78
2021/05/27 01:25:25;;;;;;;1.10;0.90;;;;;;;10.19;91.39;98752.56;4906869;28;102657;-78
2021/05/27 01:27:56;;;;;;;2.03;1.30;;;;;;;10.00;90.13;98746.00;4890030;28;103211;-78
2021/05/27 01:30:27;;;;;;;1.37;1.10;;;;;;;10.04;90.27;98745.72;4890599;28;102551;-78
2021/05/27 01:32:58;;;;;;;1.90;1.10;;;;;;;10.04;90.13;98748.34;4890154;28;103825;-78
2021/05/27 01:35:28;;;;;;;1.53;0.97;;;;;;;10.08;89.84;98752.44;4906940;28;102943;-78
2021/05/27 01:38:10;;;;;;;2.33;1.00;;;;;;;10.16;89.33;98757.25;4907440;28;102721;-78
2021/05/27 01:40:43;;;;;;;1.60;1.10;;;;;;;10.10;88.84;98755.00;4890361;28;102694;-78
2021/05/27 01:43:15;;;;;;;1.63;1.10;;;;;;;10.19;88.70;98751.75;4906635;28;103755;-78
2021/05/27 01:45:45;;;;;;;1.37;1.00;;;;;;;10.12;88.49;98758.38;4906457;28;103303;-78
2021/05/27 01:48:17;;;;;;;0.80;0.80;;;;;;;10.18;89.23;98750.06;4888563;28;102899;-78
2021/05/27 01:50:48;;;;;;;1.30;1.07;;;;;;;10.22;88.74;98759.44;4906507;28;102470;-79
2021/05/27 01:53:25;;;;;;;1.13;0.83;;;;;;;10.26;88.46;98758.28;4883099;28;103464;-78
2021/05/27 01:55:59;;;;;;;3.47;0.70;;;;;;;10.26;88.12;98753.00;4887747;28;103429;-78
2021/05/27 01:58:30;;;;;;;1.80;0.90;;;;;;;10.30;88.03;98762.41;4886049;28;103066;-78
2021/05/27 02:01:01;;;;;;;2.20;1.10;;;;;;;10.32;88.00;98760.50;4886405;28;102556;-78
2021/05/27 02:03:37;;;;;;;1.40;0.90;;;;;;;10.21;89.03;98763.06;4888092;28;102431;-78
2021/05/27 02:06:21;;;;;;;2.00;1.10;;;;;;;9.99;90.60;98757.53;4886953;28;102669;-79
2021/05/27 02:09:09;;;;;;;1.73;1.00;;;;;;;9.97;91.71;98762.91;4888178;28;102972;-79
2021/05/27 02:11:47;;;;;;;1.57;1.20;;;;;;;9.92;91.56;98772.94;4887817;28;102499;-79
2021/05/27 02:14:20;;;;;;;1.40;1.30;;;;;;;9.91;91.82;98769.44;4886113;28;103451;-78
2021/05/27 02:16:53;;;;;;;1.97;1.33;;;;;;;9.83;92.21;98777.06;4887886;28;103380;-79
2021/05/27 02:19:23;;;;;;;1.17;1.03;;;;;;;9.63;93.07;98774.06;4888277;28;102975;-78
2021/05/27 02:21:53;;;;;;;1.07;1.00;;;;;;;9.63;93.83;98772.28;4886744;28;102856;-78
2021/05/27 02:24:49;;;;;;;1.20;1.10;;;;;;;9.37;94.01;98778.47;4886205;28;103429;-78
2021/05/27 02:27:22;;;;;;;1.23;1.00;;;;;;;9.42;94.67;98775.50;4885551;28;103533;-78
2021/05/27 02:29:53;;;;;;;1.20;1.10;;;;;;;9.51;93.92;98774.91;4867566;28;102476;-79
2021/05/27 02:32:24;;;;;;;0.93;0.83;;;;;;;9.61;93.19;98782.09;4869251;28;102503;-79
2021/05/27 02:34:57;;;;;;;0.87;0.87;;;;;;;9.78;91.91;98779.16;4880284;28;103988;-78
2021/05/27 02:37:32;;;;;;;1.20;1.00;;;;;;;9.91;91.68;98777.38;4857537;28;102655;-77
2021/05/27 02:40:11;;;;;;;2.10;0.90;;;;;;;10.01;91.34;98776.75;4878974;28;103424;-77
2021/05/27 02:42:44;;;;;;;1.37;1.27;;;;;;;10.03;91.23;98770.41;4885917;28;103203;-77
2021/05/27 02:45:18;;;;;;;1.53;1.10;;;;;;;10.06;91.64;98782.53;4881780;28;103240;-78
2021/05/27 02:47:50;;;;;;;1.93;1.27;;;;;;;10.01;91.97;98780.22;4869045;28;104480;-78
2021/05/27 02:50:21;;;;;;;1.47;1.37;;;;;;;10.00;92.08;98788.25;4876551;28;102384;-77
2021/05/27 02:52:52;;;;;;;1.40;1.30;;;;;;;9.93;92.06;98779.91;4883360;28;102961;-78
2021/05/27 02:55:23;;;;;;;1.00;0.90;;;;;;;9.89;92.77;98786.34;4887179;28;103365;-78
2021/05/27 02:57:54;;;;;;;1.73;1.00;;;;;;;9.94;91.80;98780.78;4879259;28;103304;-78
2021/05/27 03:00:26;;;;;;;1.07;0.80;;;;;;;10.00;91.44;98782.97;4868802;28;102542;-78
2021/05/27 03:03:21;;;;;;;2.70;1.10;;;;;;;9.98;90.86;98784.88;4870301;28;102920;-77
2021/05/27 03:05:52;;;;;;;1.30;1.00;;;;;;;9.97;90.58;98783.16;4868186;28;103603;-77
2021/05/27 03:08:24;;;;;;;1.90;1.70;;;;;;;9.83;91.47;98781.47;4883232;28;103430;-77
2021/05/27 03:10:58;;;;;;;1.30;1.20;;;;;;;9.78;91.77;98778.31;4902630;28;102620;-80
2021/05/27 03:13:32;;;;;;;4.20;1.33;;;;;;;9.69;93.19;98773.66;4905769;28;102390;-80
2021/05/27 03:16:05;;;;;;;1.43;1.00;;;;;;;9.55;93.50;98779.00;4891707;28;103868;-78
2021/05/27 03:18:36;;;;;;;1.53;1.30;;;;;;;9.56;93.62;98768.38;4888710;28;103278;-78
2021/05/27 03:21:08;;;;;;;2.33;1.30;;;;;;;9.48;93.42;98764.56;4888337;28;102572;-78
2021/05/27 03:23:40;;;;;;;1.30;1.20;;;;;;;9.45;93.67;98764.75;4889823;28;102506;-79
2021/05/27 03:26:16;;;;;;;1.53;1.20;;;;;;;9.47;93.16;98770.75;4888457;28;104857;-79
2021/05/27 03:28:48;;;;;;;1.00;0.93;;;;;;;9.52;92.24;98764.22;4889740;28;103809;-78
2021/05/27 03:31:20;;;;;;;1.17;0.93;;;;;;;9.52;91.04;98772.16;4870321;28;103024;-78
2021/05/27 03:33:52;;;;;;;1.33;1.10;;;;;;;9.38;91.75;98759.03;4873073;28;102522;-78
2021/05/27 03:36:23;;;;;;;0.90;0.90;;;;;;;9.40;91.69;98756.31;4888048;28;103751;-78
2021/05/27 03:38:54;;;;;;;1.77;1.10;;;;;;;9.43;91.22;98753.47;4888829;28;103262;-78
2021/05/27 03:41:30;;;;;;;1.10;0.90;;;;;;;9.44;91.35;98753.34;4887526;28;103007;-78
2021/05/27 03:44:03;;;;;;;1.43;0.93;;;;;;;9.51;91.17;98757.28;4886089;28;103379;-78
2021/05/27 03:46:36;;;;;;;2.13;1.40;;;;;;;9.50;91.22;98760.88;4887147;28;103804;-78
2021/05/27 03:49:08;;;;;;;1.10;1.00;;;;;;;9.53;91.22;98763.28;4878447;28;103066;-78
2021/05/27 03:51:39;;;;;;;1.37;1.27;;;;;;;9.53;91.53;98763.28;4885255;28;103356;-78
2021/05/27 03:54:11;;;;;;;1.73;1.30;;;;;;;9.43;92.43;98764.84;4884521;28;103781;-76
2021/05/27 03:56:45;;;;;;;1.20;1.10;;;;;;;9.33;92.87;98763.78;4900102;28;103806;-76
2021/05/27 04:02:25;;;;;;;2.93;1.60;;;;;;;9.13;94.31;98764.22;4905293;28;102887;-77
2021/05/27 04:08:26;;;;;;;2.43;1.30;;;;;;;9.00;95.83;98769.47;4904749;28;103743;-77
2021/05/27 04:11:10;;;;;;;2.97;1.63;;;;;;;9.08;95.58;98772.44;4906364;28;103650;-77
2021/05/27 04:13:42;;;;;;;1.40;1.30;;;;;;;9.23;94.87;98770.63;4905394;28;103190;-77
2021/05/27 04:16:13;;;;;;;1.90;1.70;;;;;;;9.25;94.54;98768.72;4905610;28;102440;-78
2021/05/27 04:18:43;;;;;;;4.20;2.07;;;;;;;9.27;94.11;98762.38;4901571;28;103520;-77
2021/05/27 04:21:13;;;;;;;1.10;1.00;;;;;;;9.41;93.34;98769.38;4905417;28;103658;-77
2021/05/27 04:23:48;;;;;;;2.03;1.73;;;;;;;9.43;92.97;98775.38;4892438;28;102468;-77
2021/05/27 04:26:18;;;;;;;1.80;1.70;;;;;;;9.36;92.85;98784.66;4891717;28;103005;-77
2021/05/27 04:28:50;;;;;;;3.27;1.47;;;;;;;9.49;92.52;98772.34;4897712;28;103077;-78
2021/05/27 04:31:21;;;;;;;3.97;1.40;;;;;;;9.44;92.68;98782.38;4902321;28;103258;-77
2021/05/27 04:33:55;;;;;;;2.03;1.17;;;;;;;9.62;92.04;98781.16;4905263;28;103177;-77
2021/05/27 04:36:27;;;;;;;3.00;1.63;;;;;;;9.63;91.24;98788.09;4909358;28;102745;-79
2021/05/27 04:38:57;;;;;;;1.40;1.30;;;;;;;9.80;90.87;98793.09;4910128;28;103865;-80
2021/05/27 04:41:28;;;;;;;3.00;1.60;;;;;;;9.84;90.02;98789.31;4889799;28;105982;-78
2021/05/27 04:44:00;;;;;;;1.47;1.23;;;;;;;9.84;91.14;98799.00;4901995;28;103061;-77
2021/05/27 04:46:30;;;;;;;2.50;1.50;;;;;;;9.76;90.31;98796.03;4904663;28;102497;-77
2021/05/27 04:49:00;;;;;;;2.10;1.90;;;;;;;9.74;90.11;98803.22;4899778;28;103727;-78
2021/05/27 04:51:31;;;;;;;3.43;1.80;;;;;;;9.87;89.65;98804.94;4903029;28;103514;-77
2021/05/27 04:54:02;;;;;;;1.70;1.60;;;;;;;9.93;89.68;98810.75;4900557;28;102569;-77
2021/05/27 04:56:33;;;;;;;2.50;1.30;;;;;;;10.09;88.63;98808.75;4885517;28;102585;-78
2021/05/27 04:59:06;;;;;;;1.83;1.60;;;;;;;10.25;87.94;98809.41;4867871;28;104375;-78
2021/05/27 05:01:37;;;;;;;1.83;1.73;;;;;;;10.25;88.09;98809.41;4866848;28;104454;-77
2021/05/27 05:04:09;;;;;;;1.73;1.53;;;;;;;10.29;87.51;98813.53;4902520;28;103229;-77
2021/05/27 05:06:40;;;;;;;5.33;2.03;;;;;;;10.22;88.09;98818.38;4903947;28;103146;-78
2021/05/27 05:09:10;;;;;;;3.03;1.60;;;;;;;10.27;88.80;98826.00;4903554;28;103689;-78
2021/05/27 05:11:42;;;;;;;2.30;1.43;;;;;;;10.34;88.61;98824.59;4903709;28;103315;-78
2021/05/27 05:14:14;;;;;;;3.07;1.70;;;;;;;10.41;87.85;98821.44;4898665;28;102393;-78
2021/05/27 05:16:46;;;;;;;2.33;1.70;;;;;;;10.37;88.50;98832.31;4904151;28;102607;-78
2021/05/27 05:19:17;;;;;;;3.07;2.03;;;;;;;10.53;87.64;98825.00;4904394;28;103948;-78
2021/05/27 05:21:48;;;;;;;3.77;2.10;;;;;;;10.53;86.49;98829.44;4892550;28;103674;-78
2021/05/27 05:24:19;;;;;;;2.97;1.90;;;;;;;10.53;85.68;98825.00;4899275;28;102652;-78
2021/05/27 05:26:49;;;;;;;3.03;1.80;;;;;;;10.53;85.53;98832.09;4880546;28;103446;-78
2021/05/27 05:29:21;;;;;;;1.43;1.33;;;;;;;10.78;85.35;98843.47;4901250;28;103534;-78
2021/05/27 05:31:52;;;;;;;1.87;1.70;;;;;;;10.72;84.95;98841.25;4893663;28;103048;-78
2021/05/27 05:34:23;;;;;;;3.13;1.90;;;;;;;10.74;86.39;98849.09;4903342;28;102670;-77
2021/05/27 05:36:54;;;;;;;3.77;1.70;;;;;;;10.69;84.27;98849.44;4921521;28;102451;-78
2021/05/27 05:39:24;;;;;;;2.30;1.60;;;;;;;10.78;83.76;98855.88;4903392;28;103901;-77
2021/05/27 05:41:55;;;;;;;2.47;1.77;;;;;;;10.87;82.76;98856.03;4905480;28;103445;-77
2021/05/27 05:44:29;;;;;;;4.13;1.87;;;;;;;10.89;83.18;98859.41;4904410;28;103101;-77
2021/05/27 05:46:59;;;;;;;1.53;1.30;;;;;;;10.89;83.55;98859.41;4902953;28;102896;-78
2021/05/27 05:49:30;;;;;;;2.30;1.70;;;;;;;10.84;82.95;98861.53;4902777;28;103434;-77
2021/05/27 05:52:00;;;;;;;2.03;1.83;;;;;;;10.97;82.55;98857.09;4901528;28;103692;-78
2021/05/27 05:54:31;;;;;;;3.67;1.70;;;;;;;10.92;81.82;98858.34;4904352;28;102705;-77
2021/05/27 05:57:01;;;;;;;3.40;1.70;;;;;;;11.19;82.02;98850.25;4905031;28;102816;-77
2021/05/27 05:59:34;;;;;;;2.23;1.60;;;;;;;11.29;81.95;98851.25;4904261;28;104178;-78
2021/05/27 06:02:05;;;;;;;2.73;1.73;;;;;;;11.29;81.68;98851.25;4904337;28;103656;-77
2021/05/27 06:04:37;;;;;;;2.43;1.50;;;;;;;11.22;82.30;98850.88;4886501;28;102561;-78
2021/05/27 06:07:18;;;;;;;1.43;1.33;;;;;;;11.44;81.32;98850.16;4906225;28;102585;-78
2021/05/27 06:09:48;;;;;;;3.50;1.20;;;;;;;11.63;79.19;98850.47;4908594;28;103795;-77
2021/05/27 06:12:19;;;;;;;1.33;1.23;;;;;;;11.83;78.65;98855.16;4909066;28;103265;-77
2021/05/27 06:14:51;;;;;;;1.87;1.30;;;;;;;11.70;78.52;98849.13;4899076;28;102473;-78
2021/05/27 06:17:22;;;;;;;3.30;1.57;;;;;;;11.71;77.26;98849.94;4908414;28;102482;-78
2021/05/27 06:19:53;;;;;;;2.03;1.57;;;;;;;11.91;76.63;98849.28;4908477;28;103816;-78
2021/05/27 06:22:46;;;;;;;1.97;1.20;;;;;;;12.23;75.69;98860.09;4906860;28;103259;-77
2021/05/27 06:25:24;;;;;;;1.77;1.60;;;;;;;12.04;76.46;98852.72;4919294;28;102380;-77
2021/05/27 06:27:54;;;;;;;1.30;0.93;;;;;;;12.17;73.69;98856.97;4913671;28;103089;-78
2021/05/27 06:30:31;;;;;;;1.87;1.20;;;;;;;12.33;74.04;98864.56;4883178;28;103628;-78
2021/05/27 06:33:03;;;;;;;1.60;1.50;;;;;;;12.18;73.74;98863.13;4909057;28;103058;-77
2021/05/27 06:35:33;;;;;;;3.00;1.30;;;;;;;12.20;73.25;98867.34;4908171;28;102415;-77
2021/05/27 06:38:04;;;;;;;2.37;1.23;;;;;;;12.44;72.31;98867.22;4896691;28;102533;-76
2021/05/27 06:40:35;;;;;;;2.53;1.30;;;;;;;12.64;70.77;98871.00;4889831;28;104830;-77
2021/05/27 06:43:04;;;;;;;3.07;1.47;;;;;;;12.45;70.56;98876.03;4906176;28;103701;-77
2021/05/27 06:45:37;;;;;;;3.20;1.10;;;;;;;12.81;69.11;98873.16;4889138;28;102553;-76
2021/05/27 06:48:10;;;;;;;3.13;1.10;;;;;;;13.17;68.89;98862.31;4893771;28;102916;-77
2021/05/27 06:50:41;;;;;;;3.33;1.20;;;;;;;13.45;67.90;98865.38;4904728;28;103840;-76
2021/05/27 06:53:15;;;;;;;1.43;0.97;;;;;;;13.50;67.58;98866.69;4902829;28;103536;-77
2021/05/27 06:55:46;;;;;;;5.03;1.10;;;;;;;13.21;67.42;98879.69;4889518;28;102602;-77
2021/05/27 06:58:18;;;;;;;2.43;1.20;;;;;;;13.16;67.19;98868.63;4906577;28;103147;-76
2021/05/27 07:00:50;;;;;;;1.53;0.90;;;;;;;13.43;66.75;98870.00;4907682;28;103832;-78
2021/05/27 07:03:23;;;;;;;1.83;1.20;;;;;;;13.12;66.94;98872.47;4903040;28;103410;-77
2021/05/27 07:05:53;;;;;;;3.17;1.30;;;;;;;13.19;66.32;98878.94;4908438;28;103062;-77
2021/05/27 07:08:24;;;;;;;2.67;0.90;;;;;;;12.96;67.01;98881.72;4908810;28;103221;-78
2021/05/27 07:10:55;;;;;;;3.27;0.97;;;;;;;13.27;68.00;98876.56;4908401;28;103460;-77
2021/05/27 07:13:40;;;;;;;1.57;1.13;;;;;;;13.28;67.10;98878.22;4893569;28;102574;-77
2021/05/27 07:16:14;;;;;;;3.40;1.60;;;;;;;13.57;65.39;98889.13;4872366;28;101752;-77
2021/05/27 07:18:45;;;;;;;2.27;1.20;;;;;;;13.62;66.37;98883.44;4895327;28;102541;-77
2021/05/27 07:21:16;;;;;;;1.97;1.10;;;;;;;13.92;64.97;98872.97;4906778;28;104918;-77
2021/05/27 07:23:47;;;;;;;2.67;1.23;;;;;;;13.20;64.63;98880.66;4908124;28;103071;-77
2021/05/27 07:26:18;;;;;;;3.30;1.00;;;;;;;13.41;67.30;98882.56;4908974;28;103112;-77
2021/05/27 07:28:49;;;;;;;4.03;1.20;;;;;;;13.58;66.46;98879.38;4908716;28;102406;-77
2021/05/27 07:31:21;;;;;;;1.53;1.03;;;;;;;13.33;66.36;98881.34;4901032;28;104937;-76
2021/05/27 07:33:51;;;;;;;2.30;1.20;;;;;;;13.28;66.61;98880.03;4890744;28;102595;-77
2021/05/27 07:36:23;;;;;;;0.90;0.80;;;;;;;13.38;65.79;98885.44;4890428;28;102558;-77
2021/05/27 07:38:53;;;;;;;2.90;1.10;;;;;;;14.09;63.13;98880.34;4922087;28;102558;-76
2021/05/27 07:41:23;;;;;;;2.80;1.10;;;;;;;14.67;61.73;98875.44;4909557;28;104483;-77
2021/05/27 07:43:53;;;;;;;3.70;1.10;;;;;;;14.86;61.01;98871.06;4909893;28;104542;-77
2021/05/27 07:46:24;;;;;;;2.37;1.10;;;;;;;14.10;61.26;98871.41;4909008;28;102685;-76
2021/05/27 07:48:55;;;;;;;1.00;0.90;;;;;;;14.94;60.85;98862.41;4892141;28;102861;-78
2021/05/27 07:51:26;;;;;;;2.87;1.20;;;;;;;15.68;59.11;98865.56;4890180;28;102806;-77
2021/05/27 07:53:57;;;;;;;2.77;1.20;;;;;;;15.58;57.52;98865.56;4903894;28;105098;-78
2021/05/27 07:56:27;;;;;;;3.57;1.17;;;;;;;14.82;59.77;98871.47;4892721;28;103060;-77
2021/05/27 07:58:59;;;;;;;3.97;1.20;;;;;;;14.86;61.75;98871.06;4909784;28;102453;-77
2021/05/27 08:01:30;;;;;;;1.57;1.20;;;;;;;14.61;61.28;98881.28;4909571;28;103803;-77
2021/05/27 08:04:02;;;;;;;2.37;1.23;;;;;;;15.49;60.36;98867.25;4909440;28;103665;-76
2021/05/27 08:06:33;;;;;;;1.20;1.07;;;;;;;15.98;58.04;98863.63;4909899;28;102400;-77
2021/05/27 08:09:07;;;;;;;1.67;1.00;;;;;;;16.60;56.39;98863.13;4909220;28;102939;-77
2021/05/27 08:11:39;;;;;;;4.10;1.00;;;;;;;16.90;54.50;98866.56;4895157;28;103425;-77
2021/05/27 08:14:10;;;;;;;2.80;1.30;;;;;;;16.93;53.24;98874.25;4909779;28;103721;-77
2021/05/27 08:16:41;;;;;;;3.63;1.10;;;;;;;16.98;53.25;98866.69;4909494;28;102415;-77
2021/05/27 08:19:14;;;;;;;3.13;1.07;;;;;;;17.42;51.92;98870.38;4910039;28;102454;-77
2021/05/27 08:21:46;;;;;;;1.77;1.13;;;;;;;16.97;53.14;98873.00;4909149;28;102568;-77
2021/05/27 08:24:17;;;;;;;1.80;1.20;;;;;;;16.39;55.68;98875.81;4908969;28;103260;-77
2021/05/27 08:26:48;;;;;;;1.30;1.10;;;;;;;16.37;54.83;98872.41;4908980;28;103027;-76
2021/05/27 08:29:20;;;;;;;3.63;1.30;;;;;;;17.05;53.51;98873.09;4903073;28;102808;-78
2021/05/27 08:31:52;;;;;;;1.83;1.10;;;;;;;17.49;51.65;98866.94;4889746;28;102570;-77
2021/05/27 08:34:23;;;;;;;2.33;1.20;;;;;;;16.97;54.23;98864.97;4889740;28;104433;-78
2021/05/27 08:36:58;;;;;;;5.03;1.67;;;;;;;17.49;52.56;98860.78;4887951;28;102768;-76
2021/05/27 08:39:29;;;;;;;1.80;1.00;;;;;;;16.55;54.05;98865.41;4890082;28;102464;-77
2021/05/27 08:42:00;;;;;;;2.80;0.93;;;;;;;17.13;52.99;98860.69;4889617;28;102910;-77
2021/05/27 08:44:34;;;;;;;5.38;1.38;;;;;;;17.15;52.59;98857.88;4888499;28;103330;-77
2021/05/27 08:47:07;;;;;;;3.20;0.98;;;;;;;16.86;54.21;98865.16;4886994;28;102991;-76
2021/05/27 08:49:39;;;;;;;1.50;0.90;;;;;;;17.59;52.93;98861.59;4890107;28;102471;-77
2021/05/27 08:52:09;;;;;;;1.27;0.90;;;;;;;18.53;50.82;98858.25;4903127;28;103436;-76
2021/05/27 08:54:40;;;;;;;2.83;0.98;;;;;;;17.40;52.49;98859.84;4908032;28;104279;-76
2021/05/27 08:57:11;;;;;;;1.80;1.00;;;;;;;17.68;50.52;98874.88;4908316;28;102447;-76
2021/05/27 08:59:42;;;;;;;1.17;0.82;;;;;;;17.02;51.10;98873.38;4907953;28;102500;-76
2021/05/27 09:02:14;;;;;;;1.92;0.90;;;;;;;18.43;50.02;98862.84;4906824;28;103042;-77
2021/05/27 09:04:44;;;;;;;0.80;0.70;;;;;;;18.16;47.93;98863.78;4906620;28;102990;-77
2021/05/27 09:07:15;;;;;;;0.93;0.65;;;;;;;19.07;47.66;98862.41;4906906;28;102822;-77
2021/05/27 09:09:52;;;;;;;4.43;0.80;;;;;;;17.58;50.13;98868.75;4907561;28;102479;-77
2021/05/27 09:12:30;;;;;;;1.38;0.93;;;;;;;18.10;49.40;98871.59;4906734;28;103785;-77
2021/05/27 09:15:04;;;;;;;1.80;1.20;;;;;;;17.74;48.82;98882.28;4903708;28;103401;-77
2021/05/27 09:17:50;;;;;;;1.27;0.95;;;;;;;17.43;51.34;98875.56;4906846;28;102677;-78
2021/05/27 09:20:24;;;;;;;2.53;0.98;;;;;;;17.27;52.42;98884.22;4907496;28;102952;-77
2021/05/27 09:23:12;;;;;;;2.38;0.98;;;;;;;17.16;51.21;98883.56;4906756;28;102582;-76
2021/05/27 09:25:44;;;;;;;1.58;1.00;;;;;;;16.55;52.74;98892.06;4903842;28;102975;-77
2021/05/27 09:28:19;;;;;;;3.10;1.10;;;;;;;16.64;52.63;98882.38;4904982;28;102577;-77
2021/05/27 09:30:54;;;;;;;2.97;1.10;;;;;;;16.74;53.45;98888.50;4906332;28;102594;-77
2021/05/27 09:33:35;;;;;;;3.00;0.80;;;;;;;17.18;51.11;98885.09;4906727;28;103803;-76
2021/05/27 09:36:07;;;;;;;1.98;0.90;;;;;;;18.93;49.23;98877.25;4906159;28;104524;-77
2021/05/27 09:38:39;;;;;;;1.42;0.77;;;;;;;18.60;50.20;98879.88;4906000;28;102476;-76
2021/05/27 09:41:20;;;;;;;2.10;0.90;;;;;;;17.92;48.01;98891.16;4906495;28;103006;-77
2021/05/27 09:43:51;;;;;;;4.05;1.02;;;;;;;18.66;48.75;98885.44;4907796;28;103792;-78
2021/05/27 09:46:54;;;;;;;1.40;1.05;;;;;;;17.84;50.74;98890.22;5146383;27;102468;-76
2021/05/27 09:49:25;;;;;;;2.35;0.80;;;;;;;17.57;48.46;98891.09;5126971;27;102490;-77
2021/05/27 09:51:58;;;;;;;1.80;1.00;;;;;;;17.45;48.55;98892.28;5127088;27;103409;-75
2021/05/27 09:54:55;;;;;;;2.15;0.82;;;;;;;17.74;49.30;98892.97;5126451;27;103906;-77
2021/05/27 09:57:28;;;;;;;2.65;1.10;;;;;;;17.73;49.87;98885.97;5126967;27;102527;-77
2021/05/27 09:59:58;;;;;;;2.00;1.00;;;;;;;16.75;51.57;98899.06;5108677;27;102458;-77
2021/05/27 10:02:29;;;;;;;1.48;0.90;;;;;;;16.97;51.93;98908.53;5126707;27;103142;-76
2021/05/27 10:05:07;;;;;;;1.23;1.00;;;;;;;16.80;51.72;98898.59;5126522;27;103690;-76
2021/05/27 10:07:39;;;;;;;2.33;1.10;;;;;;;17.14;51.67;98898.91;5127439;27;102552;-77
2021/05/27 10:10:32;;;;;;;1.65;0.93;;;;;;;16.71;53.24;98896.81;5127498;27;102355;-76
2021/05/27 10:13:03;;;;;;;0.95;0.85;;;;;;;16.31;53.18;98896.97;5127488;27;103399;-76
2021/05/27 10:15:34;;;;;;;2.13;1.20;;;;;;;16.17;53.96;98897.41;5126881;27;103656;-77
2021/05/27 10:18:06;;;;;;;1.50;1.33;;;;;;;15.77;56.19;98904.69;5125400;27;102962;-77
2021/05/27 10:20:37;;;;;;;3.03;1.52;;;;;;;16.03;56.50;98906.66;5126162;27;102855;-77
2021/05/27 10:23:08;;;;;;;2.15;1.27;;;;;;;15.68;57.74;98905.53;5106044;27;103102;-77
2021/05/27 10:25:42;;;;;;;2.70;1.30;;;;;;;15.65;56.07;98899.50;5125667;27;103615;-76
2021/05/27 10:28:17;;;;;;;1.73;1.40;;;;;;;15.59;56.50;98897.38;5108498;27;102796;-76
2021/05/27 10:30:49;;;;;;;1.98;1.55;;;;;;;15.29;56.02;98900.09;5127498;27;102493;-75
2021/05/27 10:33:21;;;;;;;2.78;1.10;;;;;;;16.51;55.40;98901.31;5126514;27;103731;-77
2021/05/27 10:36:13;;;;;;;1.42;1.33;;;;;;;16.32;55.23;98905.81;5125589;27;102916;-77
2021/05/27 10:38:48;;;;;;;3.72;1.90;;;;;;;16.57;55.76;98899.91;5094731;27;102509;-75
2021/05/27 10:41:54;;;;;;;2.72;1.60;;;;;;;17.23;54.26;98903.38;5107281;27;103168;-76
2021/05/27 10:44:24;;;;;;;1.98;1.50;;;;;;;16.81;54.77;98898.44;5116942;27;103112;-76
2021/05/27 10:47:17;;;;;;;2.95;1.50;;;;;;;16.78;54.07;98898.78;5076796;27;103403;-75
2021/05/27 10:49:55;;;;;;;2.88;1.00;;;;;;;17.02;53.77;98895.56;5038464;27;103387;-76
2021/05/27 10:52:58;;;;;;;7.85;1.40;;;;;;;17.46;54.24;98887.78;5016823;27;102900;-75
2021/05/27 10:56:00;;;;;;;2.08;1.30;;;;;;;17.27;55.38;98900.25;5019564;27;105098;-76
2021/05/27 10:59:12;;;;;;;2.15;1.45;;;;;;;16.96;54.25;98884.63;4989992;28;103820;-76
2021/05/27 11:02:02;;;;;;;2.30;1.30;;;;;;;17.43;54.02;98888.94;5016122;28;103172;-75
2021/05/27 11:04:38;;;;;;;4.22;1.35;;;;;;;17.91;52.79;98889.47;5007154;28;102909;-76
2021/05/27 11:07:26;;;;;;;3.05;1.90;;;;;;;18.25;51.05;98894.09;5023049;28;105154;-75
2021/05/27 11:09:58;;;;;;;2.40;1.20;;;;;;;18.80;51.10;98892.91;5022601;28;102350;-75
2021/05/27 11:12:34;;;;;;;4.07;1.70;;;;;;;17.44;52.08;98879.91;5027425;28;102970;-74
2021/05/27 11:15:28;;;;;;;3.17;1.30;;;;;;;17.49;52.03;98882.16;5023717;28;102892;-75
2021/05/27 11:18:06;;;;;;;3.20;1.30;;;;;;;18.22;50.83;98883.72;5005091;28;104998;-76
2021/05/27 11:20:37;;;;;;;3.70;1.75;;;;;;;18.43;49.39;98877.06;5009294;28;102577;-75
2021/05/27 11:23:23;;;;;;;2.83;1.20;;;;;;;18.54;50.02;98886.69;5023220;28;102670;-75
2021/05/27 11:26:18;;;;;;;2.90;1.20;;;;;;;17.68;49.44;98882.91;5021945;28;102880;-74
2021/05/27 11:29:10;;;;;;;2.05;1.17;;;;;;;18.61;49.25;98882.38;5022562;28;103328;-74
2021/05/27 11:31:46;;;;;;;1.90;1.02;;;;;;;19.05;49.76;98867.94;5022133;28;103151;-74
2021/05/27 11:34:18;;;;;;;2.38;1.00;;;;;;;19.01;49.00;98871.91;5022412;28;102584;-74
2021/05/27 11:36:59;;;;;;;2.50;1.00;;;;;;;18.94;49.13;98881.59;5022542;28;102789;-74
2021/05/27 11:39:30;;;;;;;3.58;1.17;;;;;;;18.74;49.65;98876.63;5020197;28;103473;-74
2021/05/27 11:42:07;;;;;;;1.40;1.20;;;;;;;18.29;50.45;98876.78;5022875;28;102988;-75
2021/05/27 11:44:37;;;;;;;2.28;1.35;;;;;;;18.01;50.45;98884.06;5000267;28;103000;-75
2021/05/27 11:47:08;;;;;;;2.10;1.08;;;;;;;18.09;48.44;98881.44;5022534;28;103204;-74
2021/05/27 11:50:09;;;;;;;1.02;0.90;;;;;;;17.47;49.90;98890.28;5011381;28;103433;-75
2021/05/27 11:52:40;;;;;;;2.38;1.30;;;;;;;17.91;50.30;98878.78;5022028;28;102384;-75
2021/05/27 11:55:13;;;;;;;3.55;1.15;;;;;;;17.40;50.89;98879.34;5022552;28;103201;-74
2021/05/27 11:57:44;;;;;;;4.00;1.23;;;;;;;18.51;48.93;98865.59;5003304;28;103039;-74
2021/05/27 12:00:18;;;;;;;1.75;1.05;;;;;;;19.21;49.15;98863.63;5022671;28;104171;-75
2021/05/27 12:02:54;;;;;;;1.83;1.38;;;;;;;18.80;48.55;98868.81;5001803;28;102955;-76
2021/05/27 12:05:27;;;;;;;1.75;1.08;;;;;;;19.07;48.25;98871.28;5022085;28;103110;-75
2021/05/27 12:07:58;;;;;;;1.63;1.13;;;;;;;18.92;48.32;98864.84;5001666;28;103490;-75